Time;durP1;ratioP1;P1;durP2;ratioP2;P2;SDS_P1;SDS_P2;PMS_P1;PMS_P2;Temp;Humidity;BMP_temperature;BMP_pressure;BME280_temperature;BME280_humidity;BME280_pressure;Samples;Min_cycle;Max_cycle;Signal;HPM_P1;HPM_P2
2022/11/11 00:01:52;;;;;;;19.17;11.47;;;;;;;;;;5045355;28;20280;-73
2022/11/11 00:04:18;;;;;;;23.47;12.53;;;;;;;;;;5046391;28;20173;-73
2022/11/11 00:06:43;;;;;;;23.93;12.73;;;;;;;;;;5040650;28;20201;-73
2022/11/11 00:09:09;;;;;;;23.97;13.10;;;;;;;;;;5051011;28;20186;-73
2022/11/11 00:11:36;;;;;;;18.57;12.23;;;;;;;;;;5045651;28;20205;-73
2022/11/11 00:14:01;;;;;;;18.13;13.20;;;;;;;;;;5045833;28;20174;-74
2022/11/11 00:25:04;;;;;;;24.63;13.67;;;;;;;;;;5042231;28;20259;-74
2022/11/11 00:27:23;;;;;;;23.37;15.73;;;;;;;;;;5042220;28;20644;-74
2022/11/11 00:29:48;;;;;;;25.23;15.80;;;;;;;;;;5048350;28;20260;-74
2022/11/11 00:32:23;;;;;;;28.37;17.23;;;;;;;;;;5050416;28;20193;-74
2022/11/11 00:37:35;;;;;;;26.40;16.63;;;;;;;;;;5044757;28;20220;-72
2022/11/11 00:40:00;;;;;;;31.27;18.90;;;;;;;;;;5051466;28;20265;-74
2022/11/11 00:42:26;;;;;;;27.97;17.00;;;;;;;;;;5042031;28;20713;-73
2022/11/11 00:44:51;;;;;;;21.93;16.20;;;;;;;;;;5048271;28;20232;-73
2022/11/11 00:52:45;;;;;;;27.47;16.60;;;;;;;;;;5050023;28;20212;-74
2022/11/11 00:55:11;;;;;;;26.50;16.77;;;;;;;;;;5047670;28;20169;-73
2022/11/11 00:57:36;;;;;;;22.33;16.17;;;;;;;;;;5044866;28;20224;-74
2022/11/11 01:00:01;;;;;;;27.13;17.47;;;;;;;;;;5052450;28;20169;-73
2022/11/11 01:02:26;;;;;;;28.00;17.20;;;;;;;;;;5042086;28;20224;-73
2022/11/11 01:04:51;;;;;;;28.03;18.03;;;;;;;;;;5048882;28;20185;-74
2022/11/11 01:07:17;;;;;;;29.67;17.80;;;;;;;;;;5047787;28;20231;-73
2022/11/11 01:09:42;;;;;;;27.60;18.27;;;;;;;;;;5050019;28;20627;-73
2022/11/11 01:12:07;;;;;;;28.70;17.17;;;;;;;;;;5038463;28;20205;-73
2022/11/11 01:14:32;;;;;;;26.43;17.10;;;;;;;;;;5048009;28;20173;-73
2022/11/11 01:16:57;;;;;;;24.70;16.87;;;;;;;;;;5046939;28;20643;-74
2022/11/11 01:19:22;;;;;;;26.27;16.40;;;;;;;;;;5045495;28;20198;-73
2022/11/11 01:21:48;;;;;;;23.93;17.70;;;;;;;;;;5048881;28;20227;-74
2022/11/11 01:24:13;;;;;;;27.27;17.77;;;;;;;;;;5049632;28;20181;-72
2022/11/11 01:26:38;;;;;;;27.90;16.03;;;;;;;;;;5039851;28;20193;-72
2022/11/11 01:29:03;;;;;;;28.40;17.90;;;;;;;;;;5045128;28;20186;-73
2022/11/11 01:31:28;;;;;;;25.90;17.03;;;;;;;;;;5037012;28;20325;-73
2022/11/11 01:33:54;;;;;;;27.90;15.73;;;;;;;;;;5040152;28;20585;-73
2022/11/11 01:36:20;;;;;;;31.87;18.17;;;;;;;;;;5035796;28;20202;-74
2022/11/11 01:38:50;;;;;;;27.77;17.40;;;;;;;;;;5046421;28;20235;-73
2022/11/11 01:41:32;;;;;;;24.47;16.93;;;;;;;;;;5046037;28;20555;-73
2022/11/11 01:44:11;;;;;;;26.77;18.03;;;;;;;;;;5038390;28;20206;-73
2022/11/11 01:46:36;;;;;;;27.07;16.67;;;;;;;;;;5054756;28;20205;-73
2022/11/11 01:49:20;;;;;;;27.50;18.10;;;;;;;;;;5041659;28;20186;-73
2022/11/11 01:52:04;;;;;;;25.77;17.03;;;;;;;;;;5040222;28;20530;-73
2022/11/11 01:54:50;;;;;;;29.00;17.30;;;;;;;;;;5044127;28;20658;-73
2022/11/11 01:57:21;;;;;;;27.93;20.00;;;;;;;;;;5041627;28;20235;-73
2022/11/11 01:59:48;;;;;;;29.93;18.17;;;;;;;;;;5049116;28;20664;-74
2022/11/11 02:02:20;;;;;;;35.10;17.70;;;;;;;;;;5046178;28;20635;-71
2022/11/11 02:07:29;;;;;;;29.20;19.03;;;;;;;;;;5043211;28;20208;-73
2022/11/11 02:09:56;;;;;;;31.70;19.33;;;;;;;;;;5051255;28;20208;-73
2022/11/11 02:15:05;;;;;;;31.97;19.23;;;;;;;;;;5045482;28;20662;-73
2022/11/11 02:17:31;;;;;;;28.77;18.47;;;;;;;;;;5053381;28;20189;-73
2022/11/11 02:19:57;;;;;;;33.17;18.00;;;;;;;;;;5068746;28;20174;-74
2022/11/11 02:22:27;;;;;;;31.23;18.47;;;;;;;;;;5048227;28;20581;-73
2022/11/11 02:24:53;;;;;;;32.17;17.60;;;;;;;;;;5049678;28;20188;-72
2022/11/11 02:27:19;;;;;;;30.50;19.33;;;;;;;;;;5052320;28;20276;-73
2022/11/11 02:29:46;;;;;;;31.20;17.50;;;;;;;;;;5049537;28;20635;-73
2022/11/11 02:32:11;;;;;;;30.77;18.20;;;;;;;;;;5064523;28;20201;-73
2022/11/11 02:34:36;;;;;;;32.00;18.57;;;;;;;;;;5041482;28;20186;-73
2022/11/11 02:37:02;;;;;;;28.30;16.87;;;;;;;;;;5044836;28;20534;-73
2022/11/11 02:39:28;;;;;;;31.40;17.77;;;;;;;;;;5041404;28;20670;-73
2022/11/11 02:41:56;;;;;;;29.80;18.33;;;;;;;;;;5050504;28;20192;-73
2022/11/11 02:44:21;;;;;;;28.50;17.67;;;;;;;;;;5049231;28;20186;-74
2022/11/11 02:46:47;;;;;;;33.50;19.20;;;;;;;;;;5043729;28;20221;-73
2022/11/11 02:49:12;;;;;;;33.17;20.17;;;;;;;;;;5047925;28;20232;-73
2022/11/11 02:51:37;;;;;;;33.73;18.43;;;;;;;;;;5052305;28;20205;-74
2022/11/11 02:54:02;;;;;;;34.83;19.30;;;;;;;;;;5041991;28;20261;-73
2022/11/11 02:59:11;;;;;;;31.63;19.90;;;;;;;;;;5047944;28;20592;-74
2022/11/11 03:01:36;;;;;;;29.37;18.97;;;;;;;;;;5041952;28;20182;-74
2022/11/11 03:04:02;;;;;;;31.40;17.80;;;;;;;;;;5051670;28;20228;-73
2022/11/11 03:06:27;;;;;;;35.80;20.97;;;;;;;;;;5046360;28;20283;-73
2022/11/11 03:08:52;;;;;;;35.73;19.77;;;;;;;;;;5052362;28;20186;-73
2022/11/11 03:11:26;;;;;;;31.57;19.20;;;;;;;;;;5050451;28;20252;-73
2022/11/11 03:13:52;;;;;;;29.47;17.60;;;;;;;;;;5047677;28;20196;-73
2022/11/11 03:19:01;;;;;;;32.83;18.80;;;;;;;;;;5046556;28;20270;-74
2022/11/11 03:21:26;;;;;;;42.80;20.90;;;;;;;;;;5046867;28;20264;-73
2022/11/11 03:23:51;;;;;;;33.57;21.33;;;;;;;;;;5052759;28;20182;-74
2022/11/11 03:26:16;;;;;;;31.60;18.73;;;;;;;;;;5064280;28;20288;-72
2022/11/11 03:28:41;;;;;;;34.33;19.97;;;;;;;;;;5042602;28;20666;-74
2022/11/11 03:31:07;;;;;;;31.40;20.00;;;;;;;;;;5040350;28;20288;-74
2022/11/11 03:33:32;;;;;;;32.27;18.40;;;;;;;;;;5043399;28;20655;-73
2022/11/11 03:35:57;;;;;;;33.20;18.13;;;;;;;;;;5049409;28;20214;-74
2022/11/11 03:38:23;;;;;;;32.57;19.00;;;;;;;;;;5049322;28;20209;-72
2022/11/11 03:40:55;;;;;;;30.93;17.87;;;;;;;;;;5050717;28;20170;-74
2022/11/11 03:43:25;;;;;;;35.27;20.37;;;;;;;;;;5042257;28;20261;-73
2022/11/11 03:45:53;;;;;;;29.03;18.03;;;;;;;;;;5042961;28;20197;-73
2022/11/11 03:48:19;;;;;;;30.13;19.77;;;;;;;;;;5045763;28;20174;-75
2022/11/11 03:50:46;;;;;;;33.93;19.23;;;;;;;;;;5058793;28;20721;-74
2022/11/11 03:53:13;;;;;;;29.87;17.57;;;;;;;;;;5043185;28;20222;-74
2022/11/11 03:55:38;;;;;;;34.37;19.53;;;;;;;;;;5043020;28;20223;-73
2022/11/11 03:58:03;;;;;;;29.27;17.83;;;;;;;;;;5036515;28;20213;-74
2022/11/11 04:00:29;;;;;;;31.27;18.40;;;;;;;;;;5050364;28;20238;-73
2022/11/11 04:11:29;;;;;;;30.73;19.33;;;;;;;;;;5043263;28;20566;-73
2022/11/11 04:16:40;;;;;;;30.47;18.77;;;;;;;;;;5044295;28;20196;-74
2022/11/11 04:21:50;;;;;;;34.77;20.27;;;;;;;;;;5038019;28;20229;-74
2022/11/11 04:27:07;;;;;;;30.03;18.40;;;;;;;;;;5038002;28;20380;-74
2022/11/11 04:29:33;;;;;;;33.40;19.77;;;;;;;;;;5045581;28;20561;-74
2022/11/11 04:34:44;;;;;;;33.77;18.40;;;;;;;;;;5047433;28;20182;-73
2022/11/11 04:37:09;;;;;;;28.77;17.97;;;;;;;;;;5042894;28;20218;-73
2022/11/11 04:42:18;;;;;;;31.43;16.73;;;;;;;;;;5040359;28;20510;-73
2022/11/11 04:47:27;;;;;;;30.97;17.10;;;;;;;;;;5046267;28;20211;-73
2022/11/11 04:49:52;;;;;;;31.87;18.17;;;;;;;;;;5039891;28;20174;-74
2022/11/11 04:52:27;;;;;;;27.37;17.73;;;;;;;;;;5035621;28;20217;-73
2022/11/11 04:57:40;;;;;;;29.63;15.63;;;;;;;;;;5047955;28;20315;-75
2022/11/11 05:00:06;;;;;;;28.37;17.77;;;;;;;;;;5043867;28;20656;-72
2022/11/11 05:05:15;;;;;;;30.63;16.17;;;;;;;;;;5037362;28;20602;-74
2022/11/11 05:10:38;;;;;;;29.70;16.80;;;;;;;;;;5025658;28;20203;-74
2022/11/11 05:21:27;;;;;;;36.50;14.53;;;;;;;;;;5040971;28;20212;-74
2022/11/11 05:26:36;;;;;;;25.83;14.70;;;;;;;;;;5046496;28;20247;-74
2022/11/11 05:29:02;;;;;;;24.53;16.07;;;;;;;;;;5048514;28;20197;-75
2022/11/11 05:31:28;;;;;;;27.43;14.60;;;;;;;;;;5042994;28;20216;-74
2022/11/11 05:33:53;;;;;;;29.17;15.47;;;;;;;;;;5040013;28;20209;-74
2022/11/11 05:36:18;;;;;;;25.37;14.87;;;;;;;;;;5040478;28;20266;-72
2022/11/11 05:38:43;;;;;;;28.07;14.40;;;;;;;;;;5046606;28;20177;-73
2022/11/11 05:41:08;;;;;;;25.73;15.50;;;;;;;;;;5042034;28;20174;-73
2022/11/11 05:43:34;;;;;;;24.50;13.53;;;;;;;;;;5047953;28;20189;-73
2022/11/11 05:45:59;;;;;;;24.80;14.23;;;;;;;;;;5045504;28;20284;-73
2022/11/11 05:48:24;;;;;;;24.20;14.93;;;;;;;;;;5042525;28;20247;-74
2022/11/11 05:50:49;;;;;;;25.07;14.23;;;;;;;;;;5045901;28;20197;-74
2022/11/11 05:53:14;;;;;;;23.50;13.83;;;;;;;;;;5034903;28;20213;-73
2022/11/11 05:55:40;;;;;;;31.60;14.80;;;;;;;;;;5048269;28;20218;-74
2022/11/11 05:58:05;;;;;;;29.00;14.13;;;;;;;;;;5050423;28;20263;-74
2022/11/11 06:00:30;;;;;;;23.37;14.30;;;;;;;;;;5049692;28;20189;-73
2022/11/11 06:03:00;;;;;;;23.60;13.73;;;;;;;;;;5049521;28;20166;-73
2022/11/11 06:05:25;;;;;;;24.87;13.23;;;;;;;;;;5045606;28;20273;-73
2022/11/11 06:07:53;;;;;;;24.33;14.53;;;;;;;;;;5041654;28;20713;-73
2022/11/11 06:10:31;;;;;;;23.47;13.13;;;;;;;;;;5046668;28;20204;-73
2022/11/11 06:13:09;;;;;;;24.53;13.67;;;;;;;;;;5045079;28;20190;-73
2022/11/11 06:15:38;;;;;;;27.90;14.23;;;;;;;;;;5050075;28;20188;-73
2022/11/11 06:18:03;;;;;;;25.03;14.13;;;;;;;;;;5045699;28;20178;-73
2022/11/11 06:20:29;;;;;;;23.50;14.70;;;;;;;;;;5045939;28;20204;-74
2022/11/11 06:22:57;;;;;;;23.67;13.93;;;;;;;;;;5048499;28;20174;-74
2022/11/11 06:28:09;;;;;;;25.07;15.30;;;;;;;;;;5042203;28;20562;-74
2022/11/11 06:30:35;;;;;;;25.43;14.30;;;;;;;;;;5040376;28;20173;-72
2022/11/11 06:33:00;;;;;;;27.93;14.27;;;;;;;;;;5049229;28;20689;-73
2022/11/11 06:35:25;;;;;;;25.00;14.70;;;;;;;;;;5045795;28;20653;-73
2022/11/11 06:37:50;;;;;;;24.63;15.17;;;;;;;;;;5043679;28;20213;-73
2022/11/11 06:40:16;;;;;;;24.77;14.67;;;;;;;;;;5046723;28;20170;-72
2022/11/11 06:42:41;;;;;;;25.13;15.20;;;;;;;;;;5037456;28;20184;-73
2022/11/11 06:45:06;;;;;;;27.53;14.43;;;;;;;;;;5055338;28;20209;-72
2022/11/11 06:47:31;;;;;;;29.43;16.03;;;;;;;;;;5042597;28;20205;-72
2022/11/11 06:49:57;;;;;;;26.53;14.83;;;;;;;;;;5051663;28;20265;-73
2022/11/11 06:52:22;;;;;;;26.57;14.90;;;;;;;;;;5045406;28;20210;-72
2022/11/11 06:54:47;;;;;;;27.87;14.43;;;;;;;;;;5053452;28;20249;-72
2022/11/11 06:57:12;;;;;;;26.77;14.97;;;;;;;;;;5053489;28;20243;-72
2022/11/11 06:59:37;;;;;;;28.67;15.20;;;;;;;;;;5053286;28;20166;-73
2022/11/11 07:02:03;;;;;;;22.77;14.50;;;;;;;;;;5048265;28;20619;-72
2022/11/11 07:04:28;;;;;;;26.17;14.97;;;;;;;;;;5053228;28;20178;-73
2022/11/11 07:06:53;;;;;;;28.67;16.60;;;;;;;;;;5046068;28;20320;-72
2022/11/11 07:09:18;;;;;;;23.80;14.53;;;;;;;;;;5046773;28;20204;-73
2022/11/11 07:11:43;;;;;;;26.47;14.67;;;;;;;;;;5050972;28;20292;-72
2022/11/11 07:14:08;;;;;;;24.73;14.57;;;;;;;;;;5052499;28;20264;-73
2022/11/11 07:16:34;;;;;;;32.47;14.43;;;;;;;;;;5044997;28;20201;-73
2022/11/11 07:18:59;;;;;;;22.00;13.20;;;;;;;;;;5054640;28;20247;-72
2022/11/11 07:21:24;;;;;;;27.70;15.30;;;;;;;;;;5046240;28;20189;-74
2022/11/11 07:23:49;;;;;;;20.90;14.33;;;;;;;;;;5052208;28;20518;-73
2022/11/11 07:26:14;;;;;;;22.57;13.73;;;;;;;;;;5047417;28;20205;-73
2022/11/11 07:28:40;;;;;;;28.23;13.67;;;;;;;;;;5052352;28;20182;-73
2022/11/11 07:31:05;;;;;;;23.37;13.67;;;;;;;;;;5052117;28;20177;-74
2022/11/11 07:33:30;;;;;;;20.90;12.30;;;;;;;;;;5049819;28;20456;-73
2022/11/11 07:35:55;;;;;;;21.20;13.30;;;;;;;;;;5045288;28;20217;-72
2022/11/11 07:38:20;;;;;;;27.13;13.17;;;;;;;;;;5052345;28;20177;-73
2022/11/11 07:40:45;;;;;;;20.57;12.67;;;;;;;;;;5050340;28;20637;-76
2022/11/11 07:43:11;;;;;;;25.63;13.97;;;;;;;;;;5042009;28;20182;-74
2022/11/11 07:45:36;;;;;;;20.13;12.37;;;;;;;;;;5050986;28;20254;-74
2022/11/11 07:48:01;;;;;;;22.57;12.70;;;;;;;;;;5050098;28;20216;-72
2022/11/11 07:50:27;;;;;;;25.17;13.10;;;;;;;;;;5046755;28;20189;-74
2022/11/11 07:52:52;;;;;;;18.13;11.80;;;;;;;;;;5044693;28;20205;-73
2022/11/11 07:55:17;;;;;;;45.20;13.90;;;;;;;;;;5051140;28;20644;-73
2022/11/11 07:57:43;;;;;;;20.20;11.83;;;;;;;;;;5052445;28;20184;-73
2022/11/11 08:00:08;;;;;;;24.13;13.27;;;;;;;;;;5050806;28;20667;-74
2022/11/11 08:02:33;;;;;;;21.03;13.07;;;;;;;;;;5043771;28;20185;-73
2022/11/11 08:04:58;;;;;;;22.97;12.37;;;;;;;;;;5046506;28;20174;-74
2022/11/11 08:07:24;;;;;;;19.50;12.43;;;;;;;;;;5046400;28;20261;-74
2022/11/11 08:09:49;;;;;;;22.00;13.43;;;;;;;;;;5051742;28;20329;-73
2022/11/11 08:14:58;;;;;;;23.90;12.83;;;;;;;;;;5051053;28;20184;-73
2022/11/11 08:17:23;;;;;;;25.00;13.23;;;;;;;;;;5047518;28;20193;-73
2022/11/11 08:19:48;;;;;;;22.90;12.90;;;;;;;;;;5040562;28;20249;-74
2022/11/11 08:22:13;;;;;;;24.00;13.20;;;;;;;;;;5044008;28;20661;-73
2022/11/11 08:24:39;;;;;;;21.13;13.70;;;;;;;;;;5042028;28;20182;-73
2022/11/11 08:27:04;;;;;;;24.17;12.77;;;;;;;;;;5046812;28;20206;-73
2022/11/11 08:29:29;;;;;;;22.67;14.03;;;;;;;;;;5040780;28;20185;-74
2022/11/11 08:31:54;;;;;;;21.37;13.00;;;;;;;;;;5039781;28;20214;-73
2022/11/11 08:34:20;;;;;;;23.17;14.10;;;;;;;;;;5048706;28;20177;-73
2022/11/11 08:36:45;;;;;;;22.00;13.30;;;;;;;;;;5046143;28;20209;-73
2022/11/11 08:39:10;;;;;;;21.80;13.70;;;;;;;;;;5048251;28;20170;-73
2022/11/11 08:41:36;;;;;;;29.37;14.67;;;;;;;;;;5045314;28;20214;-73
2022/11/11 08:44:01;;;;;;;23.00;14.13;;;;;;;;;;5049095;28;20285;-74
2022/11/11 08:46:26;;;;;;;22.23;14.30;;;;;;;;;;5044210;28;20565;-73
2022/11/11 08:48:52;;;;;;;22.33;14.43;;;;;;;;;;5042100;28;20178;-76
2022/11/11 08:51:17;;;;;;;28.80;14.67;;;;;;;;;;5047402;28;20295;-74
2022/11/11 08:53:42;;;;;;;22.67;14.43;;;;;;;;;;5048245;28;20174;-74
2022/11/11 08:56:08;;;;;;;22.90;13.50;;;;;;;;;;5045028;28;20247;-74
2022/11/11 08:58:33;;;;;;;22.00;13.03;;;;;;;;;;5046215;28;20176;-73
2022/11/11 09:01:00;;;;;;;26.50;15.97;;;;;;;;;;5049483;28;20169;-74
2022/11/11 09:03:26;;;;;;;23.73;13.67;;;;;;;;;;5044215;28;20185;-74
2022/11/11 09:05:51;;;;;;;25.20;13.27;;;;;;;;;;5043786;28;20196;-74
2022/11/11 09:08:16;;;;;;;22.47;14.50;;;;;;;;;;5050241;28;20181;-73
2022/11/11 09:10:41;;;;;;;23.00;14.10;;;;;;;;;;5048825;28;20177;-73
2022/11/11 09:13:07;;;;;;;23.60;14.53;;;;;;;;;;5046155;28;20212;-73
2022/11/11 09:15:32;;;;;;;27.33;15.33;;;;;;;;;;5047972;28;20208;-73
2022/11/11 09:17:58;;;;;;;26.47;14.43;;;;;;;;;;5047894;28;20545;-73
2022/11/11 09:20:23;;;;;;;19.40;13.80;;;;;;;;;;5048834;28;20189;-74
2022/11/11 09:22:49;;;;;;;23.43;14.30;;;;;;;;;;5047859;28;20232;-73
2022/11/11 09:25:15;;;;;;;21.13;13.20;;;;;;;;;;5042074;28;20184;-73
2022/11/11 09:27:40;;;;;;;22.87;14.30;;;;;;;;;;5047381;28;20194;-73
2022/11/11 09:30:06;;;;;;;21.53;13.43;;;;;;;;;;5046772;28;20181;-74
2022/11/11 09:32:31;;;;;;;21.00;13.00;;;;;;;;;;5049797;28;20623;-73
2022/11/11 09:34:57;;;;;;;21.90;13.83;;;;;;;;;;5054538;28;20201;-73
2022/11/11 09:37:22;;;;;;;21.17;14.07;;;;;;;;;;5048500;28;20213;-73
2022/11/11 09:39:47;;;;;;;19.47;13.33;;;;;;;;;;5042956;28;20205;-73
2022/11/11 09:42:17;;;;;;;24.57;14.43;;;;;;;;;;5042474;28;20653;-74
2022/11/11 09:44:42;;;;;;;26.57;15.63;;;;;;;;;;5041138;28;20178;-73
2022/11/11 09:47:27;;;;;;;21.03;13.80;;;;;;;;;;5038966;28;20299;-73
2022/11/11 09:49:59;;;;;;;26.23;14.70;;;;;;;;;;5038985;28;20189;-74
2022/11/11 09:52:30;;;;;;;24.30;14.10;;;;;;;;;;5042365;28;20198;-74
2022/11/11 09:55:01;;;;;;;20.87;13.87;;;;;;;;;;5049638;28;20256;-74
2022/11/11 09:57:41;;;;;;;25.10;13.57;;;;;;;;;;5050300;28;20204;-74
2022/11/11 10:00:15;;;;;;;21.93;14.13;;;;;;;;;;5048740;28;20176;-74
2022/11/11 10:02:44;;;;;;;22.10;14.37;;;;;;;;;;5039137;28;20210;-74
2022/11/11 10:05:14;;;;;;;21.53;13.70;;;;;;;;;;5040822;28;20231;-74
2022/11/11 10:07:49;;;;;;;21.20;13.70;;;;;;;;;;5038840;28;20198;-74
2022/11/11 10:10:14;;;;;;;23.70;14.47;;;;;;;;;;5049257;28;20177;-73
2022/11/11 10:12:43;;;;;;;19.23;13.67;;;;;;;;;;5044235;28;20256;-73
2022/11/11 10:15:13;;;;;;;21.57;12.57;;;;;;;;;;5044394;28;20182;-73
2022/11/11 10:17:52;;;;;;;24.60;13.20;;;;;;;;;;5049932;28;20194;-71
2022/11/11 10:20:17;;;;;;;24.50;14.40;;;;;;;;;;5040668;28;20182;-73
2022/11/11 10:22:43;;;;;;;23.17;14.53;;;;;;;;;;5053512;28;20583;-73
2022/11/11 10:25:12;;;;;;;23.63;15.20;;;;;;;;;;5054466;28;20177;-73
2022/11/11 10:27:41;;;;;;;20.57;13.33;;;;;;;;;;5047929;28;20256;-73
2022/11/11 10:30:18;;;;;;;21.30;13.43;;;;;;;;;;5043732;28;20220;-74
2022/11/11 10:32:43;;;;;;;20.73;12.90;;;;;;;;;;5050585;28;20205;-71
2022/11/11 10:35:16;;;;;;;21.37;12.73;;;;;;;;;;5049736;28;20219;-74
2022/11/11 10:37:42;;;;;;;24.73;13.50;;;;;;;;;;5046041;28;20690;-73
2022/11/11 10:40:26;;;;;;;20.23;12.65;;;;;;;;;;5049465;28;20209;-73
2022/11/11 10:42:51;;;;;;;20.20;12.40;;;;;;;;;;5041438;28;20594;-73
2022/11/11 10:45:26;;;;;;;18.50;12.75;;;;;;;;;;5052447;28;20173;-73
2022/11/11 10:47:54;;;;;;;18.25;12.77;;;;;;;;;;5048446;28;20616;-74
2022/11/11 10:50:22;;;;;;;17.73;12.27;;;;;;;;;;5050561;28;20647;-74
2022/11/11 10:52:53;;;;;;;17.98;12.02;;;;;;;;;;5041382;28;20549;-73
2022/11/11 10:55:26;;;;;;;18.52;11.27;;;;;;;;;;5054402;28;20174;-73
2022/11/11 10:57:51;;;;;;;18.67;12.65;;;;;;;;;;5048980;28;20174;-73
2022/11/11 11:00:16;;;;;;;17.73;11.82;;;;;;;;;;5047319;28;20721;-74
2022/11/11 11:02:52;;;;;;;18.10;13.10;;;;;;;;;;5042454;28;20197;-74
2022/11/11 11:05:26;;;;;;;17.90;11.77;;;;;;;;;;5043457;28;20177;-73
2022/11/11 11:07:55;;;;;;;17.95;12.77;;;;;;;;;;5052309;28;20170;-74
2022/11/11 11:10:23;;;;;;;21.85;13.23;;;;;;;;;;5053090;28;20702;-74
2022/11/11 11:12:53;;;;;;;15.32;11.32;;;;;;;;;;5051356;28;20619;-71
2022/11/11 11:15:23;;;;;;;16.95;12.15;;;;;;;;;;5045958;28;20178;-73
2022/11/11 11:17:52;;;;;;;13.95;11.52;;;;;;;;;;5050742;28;20174;-74
2022/11/11 11:20:21;;;;;;;14.43;11.45;;;;;;;;;;5052960;28;20170;-73
2022/11/11 11:22:54;;;;;;;19.95;12.65;;;;;;;;;;5067695;28;20181;-74
2022/11/11 11:25:20;;;;;;;18.23;12.23;;;;;;;;;;5051852;28;20202;-73
2022/11/11 11:27:48;;;;;;;16.00;12.15;;;;;;;;;;5048398;28;20656;-73
2022/11/11 11:30:17;;;;;;;16.60;12.07;;;;;;;;;;5046534;28;20201;-74
2022/11/11 11:32:54;;;;;;;17.42;13.02;;;;;;;;;;5052119;28;20204;-74
2022/11/11 11:35:34;;;;;;;13.93;10.80;;;;;;;;;;5052530;28;20205;-73
2022/11/11 11:37:59;;;;;;;16.95;11.77;;;;;;;;;;5044266;28;20181;-74
2022/11/11 11:40:24;;;;;;;15.27;11.07;;;;;;;;;;5052174;28;20178;-73
2022/11/11 11:42:49;;;;;;;15.30;10.82;;;;;;;;;;5043041;28;20539;-73
2022/11/11 11:45:15;;;;;;;15.07;11.48;;;;;;;;;;5044276;28;20184;-72
2022/11/11 11:47:43;;;;;;;15.75;10.25;;;;;;;;;;5051384;28;20299;-74
2022/11/11 11:50:14;;;;;;;14.25;9.88;;;;;;;;;;5049449;28;20184;-73
2022/11/11 11:53:09;;;;;;;14.93;10.75;;;;;;;;;;5050265;28;20563;-74
2022/11/11 11:55:36;;;;;;;13.05;9.18;;;;;;;;;;5048474;28;20206;-71
2022/11/11 11:58:21;;;;;;;13.25;9.88;;;;;;;;;;5040214;28;20174;-74
2022/11/11 12:01:03;;;;;;;12.30;9.60;;;;;;;;;;5055358;28;20537;-73
2022/11/11 12:03:32;;;;;;;15.35;9.77;;;;;;;;;;5044053;28;20179;-73
2022/11/11 12:06:02;;;;;;;12.40;8.95;;;;;;;;;;5043776;28;20197;-73
2022/11/11 12:08:46;;;;;;;12.60;9.07;;;;;;;;;;5042073;28;20635;-74
2022/11/11 12:11:21;;;;;;;12.55;8.88;;;;;;;;;;5047151;28;20284;-74
2022/11/11 12:14:05;;;;;;;12.90;9.73;;;;;;;;;;5049875;28;20177;-74
2022/11/11 12:16:33;;;;;;;13.23;10.02;;;;;;;;;;5049181;28;20190;-73
2022/11/11 12:19:17;;;;;;;12.10;9.15;;;;;;;;;;5044721;28;20201;-73
2022/11/11 12:21:42;;;;;;;11.38;8.10;;;;;;;;;;5045051;28;20201;-72
2022/11/11 12:24:26;;;;;;;14.15;9.65;;;;;;;;;;5045561;28;20217;-72
2022/11/11 12:27:18;;;;;;;13.07;8.52;;;;;;;;;;5050257;28;21076;-72
2022/11/11 12:29:53;;;;;;;14.70;8.95;;;;;;;;;;5037039;28;20205;-72
2022/11/11 12:32:30;;;;;;;13.05;9.73;;;;;;;;;;5050742;28;20662;-72
2022/11/11 12:35:14;;;;;;;15.68;8.90;;;;;;;;;;5051882;28;20180;-72
2022/11/11 12:37:57;;;;;;;11.93;8.15;;;;;;;;;;5039376;28;20209;-72
2022/11/11 12:40:43;;;;;;;9.88;8.00;;;;;;;;;;5048904;28;20173;-72
2022/11/11 12:43:28;;;;;;;11.50;7.65;;;;;;;;;;5025594;28;20276;-72
2022/11/11 12:46:03;;;;;;;11.27;8.07;;;;;;;;;;5038303;28;20205;-72
2022/11/11 12:48:36;;;;;;;10.85;8.65;;;;;;;;;;5051266;28;20774;-72
2022/11/11 12:51:12;;;;;;;13.57;9.90;;;;;;;;;;5053653;28;20212;-72
2022/11/11 12:53:50;;;;;;;14.30;10.30;;;;;;;;;;5045557;28;20221;-72
2022/11/11 12:56:15;;;;;;;13.77;9.55;;;;;;;;;;5038337;28;20240;-72
2022/11/11 12:58:53;;;;;;;13.68;9.15;;;;;;;;;;5040916;28;20205;-72
2022/11/11 13:01:37;;;;;;;14.50;9.38;;;;;;;;;;5043783;28;20181;-72
2022/11/11 13:04:21;;;;;;;11.23;8.38;;;;;;;;;;5047929;28;20589;-72
2022/11/11 13:07:07;;;;;;;10.43;7.55;;;;;;;;;;5038745;28;20205;-72
2022/11/11 13:09:35;;;;;;;11.65;8.75;;;;;;;;;;5039732;28;20247;-72
2022/11/11 13:12:14;;;;;;;11.88;8.93;;;;;;;;;;5045512;28;20197;-72
2022/11/11 13:14:50;;;;;;;11.95;9.10;;;;;;;;;;5044873;28;20655;-72
2022/11/11 13:17:15;;;;;;;12.63;8.25;;;;;;;;;;5045669;28;20262;-72
2022/11/11 13:19:52;;;;;;;11.55;8.00;;;;;;;;;;5048923;28;20639;-72
2022/11/11 13:22:17;;;;;;;12.68;8.23;;;;;;;;;;5047130;28;20181;-72
2022/11/11 13:24:42;;;;;;;12.63;8.38;;;;;;;;;;5042969;28;20269;-72
2022/11/11 13:27:22;;;;;;;11.55;7.32;;;;;;;;;;5049151;28;20212;-72
2022/11/11 13:29:48;;;;;;;11.43;6.88;;;;;;;;;;5045062;28;20228;-72
2022/11/11 13:32:16;;;;;;;12.20;6.97;;;;;;;;;;5046331;28;20193;-72
2022/11/11 13:34:42;;;;;;;8.10;5.95;;;;;;;;;;5047743;28;20498;-72
2022/11/11 13:37:09;;;;;;;13.82;7.88;;;;;;;;;;5044793;28;20649;-72
2022/11/11 13:39:38;;;;;;;10.50;7.80;;;;;;;;;;5050400;28;20178;-72
2022/11/11 13:42:04;;;;;;;10.60;6.82;;;;;;;;;;5049935;28;20174;-72
2022/11/11 13:44:31;;;;;;;13.68;7.70;;;;;;;;;;5050453;28;20712;-72
2022/11/11 13:46:59;;;;;;;8.65;6.93;;;;;;;;;;5050546;28;20670;-72
2022/11/11 13:49:27;;;;;;;11.40;6.57;;;;;;;;;;5039100;28;20182;-72
2022/11/11 13:52:16;;;;;;;9.85;6.57;;;;;;;;;;5041708;28;20686;-72
2022/11/11 13:54:46;;;;;;;10.02;7.00;;;;;;;;;;5046970;28;20192;-72
2022/11/11 13:57:11;;;;;;;11.43;6.70;;;;;;;;;;5041089;28;20255;-72
2022/11/11 13:59:39;;;;;;;9.37;7.03;;;;;;;;;;5040640;28;20182;-72
2022/11/11 14:02:17;;;;;;;13.88;7.35;;;;;;;;;;5049566;28;20900;-72
2022/11/11 14:04:57;;;;;;;9.00;6.97;;;;;;;;;;5043692;28;20173;-72
2022/11/11 14:07:41;;;;;;;12.70;6.90;;;;;;;;;;5042655;28;20204;-72
2022/11/11 14:10:06;;;;;;;9.63;7.30;;;;;;;;;;5043749;28;20195;-72
2022/11/11 14:12:34;;;;;;;8.75;7.00;;;;;;;;;;5044362;28;20219;-72
2022/11/11 14:14:59;;;;;;;10.52;7.35;;;;;;;;;;5048541;28;20176;-72
2022/11/11 14:17:26;;;;;;;13.27;8.32;;;;;;;;;;5045157;28;20201;-72
2022/11/11 14:19:51;;;;;;;9.48;7.57;;;;;;;;;;5044328;28;20265;-72
2022/11/11 14:22:27;;;;;;;10.02;7.22;;;;;;;;;;5046480;28;20245;-72
2022/11/11 14:24:52;;;;;;;10.82;7.72;;;;;;;;;;5043836;28;20181;-72
2022/11/11 14:27:21;;;;;;;11.70;7.88;;;;;;;;;;5049058;28;20215;-72
2022/11/11 14:29:48;;;;;;;11.73;8.05;;;;;;;;;;5045874;28;20514;-72
2022/11/11 14:32:13;;;;;;;11.05;6.80;;;;;;;;;;5047222;28;20209;-72
2022/11/11 14:34:50;;;;;;;11.53;7.57;;;;;;;;;;5040213;28;20558;-72
2022/11/11 14:37:36;;;;;;;12.60;7.78;;;;;;;;;;5045403;28;20462;-72
2022/11/11 14:40:01;;;;;;;9.88;6.88;;;;;;;;;;5038420;28;20193;-72
2022/11/11 14:42:33;;;;;;;11.52;7.78;;;;;;;;;;5039936;28;20181;-72
2022/11/11 14:44:58;;;;;;;11.20;7.68;;;;;;;;;;5045441;28;20260;-72
2022/11/11 14:47:29;;;;;;;8.88;6.45;;;;;;;;;;5041794;28;20280;-72
2022/11/11 14:49:54;;;;;;;10.52;7.47;;;;;;;;;;5036898;28;20217;-72
2022/11/11 14:52:29;;;;;;;11.25;7.85;;;;;;;;;;5041055;28;20221;-72
2022/11/11 14:55:12;;;;;;;10.60;7.15;;;;;;;;;;5047886;28;20165;-72
2022/11/11 14:57:39;;;;;;;8.80;6.47;;;;;;;;;;5037374;28;20392;-72
2022/11/11 15:00:10;;;;;;;8.60;6.53;;;;;;;;;;5040850;28;20177;-72
2022/11/11 15:02:39;;;;;;;11.35;6.75;;;;;;;;;;5037815;28;20656;-72
2022/11/11 15:05:09;;;;;;;9.77;6.40;;;;;;;;;;5053270;28;20715;-72
2022/11/11 15:07:52;;;;;;;14.27;6.30;;;;;;;;;;5052153;28;20258;-72
2022/11/11 15:10:31;;;;;;;10.75;6.22;;;;;;;;;;5052463;28;20563;-72
2022/11/11 15:13:15;;;;;;;11.32;7.25;;;;;;;;;;5041507;28;20267;-72
2022/11/11 15:16:00;;;;;;;8.80;6.82;;;;;;;;;;5043119;28;20229;-72
2022/11/11 15:18:34;;;;;;;12.57;7.30;;;;;;;;;;5050608;28;20191;-72
2022/11/11 15:21:05;;;;;;;8.45;6.22;;;;;;;;;;5052259;28;20170;-72
2022/11/11 15:23:30;;;;;;;10.60;6.40;;;;;;;;;;5052255;28;20209;-72
2022/11/11 15:25:56;;;;;;;8.20;5.90;;;;;;;;;;5045937;28;20698;-72
2022/11/11 15:28:21;;;;;;;11.98;7.43;;;;;;;;;;5048009;28;20174;-72
2022/11/11 15:31:01;;;;;;;9.23;6.70;;;;;;;;;;5042665;28;20214;-72
2022/11/11 15:33:45;;;;;;;8.40;5.93;;;;;;;;;;5050578;28;20474;-72
2022/11/11 15:36:20;;;;;;;11.35;6.63;;;;;;;;;;5048418;28;20256;-73
2022/11/11 15:38:45;;;;;;;11.85;6.60;;;;;;;;;;5045537;28;20193;-73
2022/11/11 15:41:20;;;;;;;11.00;7.30;;;;;;;;;;5050234;28;20626;-73
2022/11/11 15:43:46;;;;;;;8.70;5.38;;;;;;;;;;5063087;28;20185;-73
2022/11/11 15:46:18;;;;;;;12.35;8.68;;;;;;;;;;5039298;28;20668;-73
2022/11/11 15:48:44;;;;;;;11.52;8.38;;;;;;;;;;5045913;28;20264;-73